createdAt,value
2023-03-31T00:00:41.503Z,8.0109
2023-03-31T00:01:42.288Z,8.3279
2023-03-31T00:02:43.124Z,8.2606
2023-03-31T00:03:44.867Z,8.2091
2023-03-31T00:04:44.293Z,8.2070
2023-03-31T00:05:45.019Z,8.0853
2023-03-31T00:06:45.820Z,8.3280
2023-03-31T00:07:46.537Z,8.2416
2023-03-31T00:08:47.236Z,8.4161
2023-03-31T00:09:47.996Z,8.4056
2023-03-31T00:10:48.753Z,8.3070
2023-03-31T00:11:49.379Z,8.2127
2023-03-31T00:12:50.155Z,8.3009
2023-03-31T00:14:51.480Z,8.4675
2023-03-31T00:15:54.367Z,8.6184
2023-03-31T00:16:52.996Z,8.6420
2023-03-31T00:17:53.873Z,8.3959
2023-03-31T00:18:54.670Z,8.5660
2023-03-31T00:19:55.596Z,8.2021
2023-03-31T00:20:56.520Z,8.3026
2023-03-31T00:21:58.181Z,8.5271
2023-03-31T00:22:58.968Z,8.5022
2023-03-31T00:23:59.779Z,8.4663
2023-03-31T00:25:00.569Z,8.8588
2023-03-31T00:26:01.337Z,8.9420
2023-03-31T00:27:02.501Z,8.9303
2023-03-31T00:28:03.284Z,8.9022
2023-03-31T00:29:04.078Z,8.8597
2023-03-31T00:30:04.887Z,8.8537
2023-03-31T00:31:05.517Z,8.9351
2023-03-31T00:32:06.433Z,8.9825
2023-03-31T00:33:07.469Z,8.8656
2023-03-31T00:34:08.322Z,8.8016
2023-03-31T00:35:09.077Z,8.9627
2023-03-31T00:36:09.964Z,8.9792
2023-03-31T00:37:10.799Z,8.8444
2023-03-31T00:38:11.792Z,8.8647
2023-03-31T00:39:12.549Z,8.9309
2023-03-31T00:40:13.369Z,8.9989
2023-03-31T00:41:14.102Z,8.7822
2023-03-31T00:42:14.819Z,8.7094
2023-03-31T00:43:15.633Z,8.4936
2023-03-31T00:44:16.403Z,8.4942
2023-03-31T00:45:17.318Z,8.4091
2023-03-31T00:46:18.170Z,8.6864
2023-03-31T00:47:19.045Z,8.8872
2023-03-31T00:48:19.800Z,8.8061
2023-03-31T00:49:20.576Z,8.6213
2023-03-31T00:50:21.369Z,8.6342
2023-03-31T00:51:22.112Z,8.7671
2023-03-31T00:52:22.846Z,8.8700
2023-03-31T00:53:23.634Z,8.7814
2023-03-31T00:54:24.391Z,8.8080
2023-03-31T00:55:25.134Z,8.9247
2023-03-31T00:56:25.882Z,8.9557
2023-03-31T00:57:26.674Z,8.7848
2023-03-31T00:58:27.389Z,8.5383
2023-03-31T00:59:28.108Z,8.4148
2023-03-31T01:00:28.966Z,8.4491
2023-03-31T01:01:29.724Z,8.3543
2023-03-31T01:02:30.535Z,8.3009
2023-03-31T01:03:31.261Z,8.4960
2023-03-31T01:04:32.020Z,8.4704
2023-03-31T01:05:32.941Z,8.8516
2023-03-31T01:06:33.644Z,8.6535
2023-03-31T01:07:34.403Z,8.9419
2023-03-31T01:08:35.160Z,8.8699
2023-03-31T01:09:35.931Z,8.6870
2023-03-31T01:10:36.917Z,8.5738
2023-03-31T01:11:37.705Z,8.6378
2023-03-31T01:12:38.464Z,8.5906
2023-03-31T01:13:39.232Z,8.6614
2023-03-31T01:14:40.062Z,8.6088
2023-03-31T01:15:40.730Z,8.6356
2023-03-31T01:16:41.618Z,8.6057
2023-03-31T01:17:42.827Z,8.5904
2023-03-31T01:18:43.997Z,8.8531
2023-03-31T01:19:44.912Z,8.7406
2023-03-31T01:20:45.675Z,8.5409
2023-03-31T01:21:46.444Z,8.5798
2023-03-31T01:22:47.214Z,8.7225
2023-03-31T01:23:48.024Z,8.5839
2023-03-31T01:24:48.775Z,8.4674
2023-03-31T01:25:49.578Z,8.3951
2023-03-31T01:26:50.386Z,8.2786
2023-03-31T01:27:51.329Z,8.2016
2023-03-31T01:28:52.609Z,8.1303
2023-03-31T01:29:53.332Z,8.0396
2023-03-31T01:30:54.113Z,7.9332
2023-03-31T01:31:54.790Z,7.8459
2023-03-31T01:32:55.561Z,7.8426
2023-03-31T01:33:57.134Z,7.9645
2023-03-31T01:34:58.029Z,8.0116
2023-03-31T01:35:58.891Z,8.0441
2023-03-31T01:36:59.693Z,8.0700
2023-03-31T01:38:00.434Z,8.0734
2023-03-31T01:39:01.172Z,8.0967
2023-03-31T01:40:01.924Z,8.1178
2023-03-31T01:41:02.701Z,8.1036
2023-03-31T01:42:03.505Z,8.1017
2023-03-31T01:43:04.281Z,8.1599
2023-03-31T01:44:05.046Z,8.1893
2023-03-31T01:45:05.793Z,8.2257
2023-03-31T01:46:06.803Z,8.2256
2023-03-31T01:47:08.729Z,8.2235
2023-03-31T01:48:09.425Z,8.2448
2023-03-31T01:49:10.227Z,8.2347
2023-03-31T01:50:10.971Z,8.1392
2023-03-31T01:51:11.721Z,8.1358
2023-03-31T01:52:12.501Z,8.2182
2023-03-31T01:53:13.321Z,8.4143
2023-03-31T01:54:14.102Z,8.3906
2023-03-31T01:55:14.904Z,8.3699
2023-03-31T01:56:15.666Z,8.2910
2023-03-31T01:57:16.631Z,8.2397
2023-03-31T01:58:17.588Z,8.1388
2023-03-31T01:59:18.479Z,8.0290
2023-03-31T02:00:19.290Z,7.9633
2023-03-31T02:01:20.062Z,7.9757
2023-03-31T02:02:20.878Z,8.1333
2023-03-31T02:03:21.652Z,8.0807
2023-03-31T02:04:22.668Z,8.1039
2023-03-31T02:05:23.333Z,8.0772
2023-03-31T02:06:24.052Z,8.0392
2023-03-31T02:07:24.782Z,8.0169
2023-03-31T02:08:25.532Z,8.0053
2023-03-31T02:09:26.248Z,8.0358
2023-03-31T02:10:27.018Z,8.1562
2023-03-31T02:11:27.806Z,8.0736
2023-03-31T02:12:28.663Z,7.9501
2023-03-31T02:13:29.426Z,7.9265
2023-03-31T02:14:30.194Z,7.8138
2023-03-31T02:15:31.101Z,7.7475
2023-03-31T02:16:31.953Z,7.7563
2023-03-31T02:17:32.963Z,7.9188
2023-03-31T02:18:33.776Z,7.9921
2023-03-31T02:19:34.603Z,7.9243
2023-03-31T02:20:35.374Z,7.8599
2023-03-31T02:21:36.239Z,7.8178
2023-03-31T02:22:37.114Z,7.7718
2023-03-31T02:23:37.866Z,8.0019
2023-03-31T02:24:38.717Z,7.8580
2023-03-31T02:25:39.489Z,7.7687
2023-03-31T02:26:40.228Z,7.7206
2023-03-31T02:27:41.021Z,7.8254
2023-03-31T02:28:41.896Z,7.8715
2023-03-31T02:29:42.603Z,7.8058
2023-03-31T02:30:43.385Z,7.9086
2023-03-31T02:31:44.187Z,7.8848
2023-03-31T02:32:44.930Z,8.0278
2023-03-31T02:33:45.683Z,7.9189
2023-03-31T02:34:46.427Z,7.7249
2023-03-31T02:35:47.254Z,7.5885
2023-03-31T02:36:47.991Z,7.6180
2023-03-31T02:37:48.773Z,7.9967
2023-03-31T02:38:49.620Z,7.9954
2023-03-31T02:39:50.409Z,8.0821
2023-03-31T02:40:51.190Z,8.1915
2023-03-31T02:41:52.002Z,8.0808
2023-03-31T02:42:52.771Z,8.1385
2023-03-31T02:43:53.437Z,8.3037
2023-03-31T02:44:54.224Z,8.2632
2023-03-31T02:45:55.223Z,7.9932
2023-03-31T02:46:56.024Z,8.1234
2023-03-31T02:47:56.840Z,8.1950
2023-03-31T02:48:57.503Z,8.3283
2023-03-31T02:49:58.629Z,8.2689
2023-03-31T02:50:59.495Z,8.3534
2023-03-31T02:52:00.281Z,8.4505
2023-03-31T02:53:01.030Z,8.4323
2023-03-31T02:54:01.846Z,8.3335
2023-03-31T02:55:02.627Z,8.3221
2023-03-31T02:56:03.590Z,8.2952
2023-03-31T02:57:05.197Z,8.3846
2023-03-31T02:58:05.966Z,8.3387
2023-03-31T02:59:06.722Z,8.3485
2023-03-31T03:00:07.459Z,8.3526
2023-03-31T03:01:08.262Z,8.2488
2023-03-31T03:02:09.123Z,8.2739
2023-03-31T03:03:09.967Z,8.2124
2023-03-31T03:04:11.001Z,8.1796
2023-03-31T03:05:11.636Z,8.1922
2023-03-31T03:06:12.419Z,8.2059
2023-03-31T03:07:13.417Z,8.1104
2023-03-31T03:08:14.232Z,8.1245
2023-03-31T03:09:15.002Z,8.1194
2023-03-31T03:10:15.770Z,8.0302
2023-03-31T03:11:16.602Z,8.0711
2023-03-31T03:12:17.426Z,8.1868
2023-03-31T03:13:18.208Z,8.0922
2023-03-31T03:14:18.995Z,8.0735
2023-03-31T03:15:19.725Z,8.1112
2023-03-31T03:16:20.713Z,8.0939
2023-03-31T03:17:21.455Z,8.0338
2023-03-31T03:18:22.209Z,7.9325
2023-03-31T03:19:23.028Z,8.0167
2023-03-31T03:20:23.804Z,8.0093
2023-03-31T03:21:24.492Z,8.0596
2023-03-31T03:22:25.364Z,8.0508
2023-03-31T03:23:26.166Z,8.0491
2023-03-31T03:24:26.953Z,8.0258
2023-03-31T03:25:27.761Z,7.9953
2023-03-31T03:26:28.610Z,8.0602
2023-03-31T03:27:29.465Z,8.0458
2023-03-31T03:28:30.295Z,8.0434
2023-03-31T03:29:31.637Z,8.0655
2023-03-31T03:30:32.464Z,8.0294
2023-03-31T03:31:33.085Z,8.0190
2023-03-31T03:32:33.986Z,8.0255
2023-03-31T03:33:34.822Z,8.1392
2023-03-31T03:34:35.536Z,8.1253
2023-03-31T03:35:36.353Z,8.0898
2023-03-31T03:36:37.162Z,8.0778
2023-03-31T03:37:37.922Z,8.0728
2023-03-31T03:38:38.704Z,8.1004
2023-03-31T03:39:39.468Z,8.0697
2023-03-31T03:40:40.192Z,8.1442
2023-03-31T03:41:41.176Z,8.1204
2023-03-31T03:42:41.996Z,8.1631
2023-03-31T03:43:42.777Z,8.3028
2023-03-31T03:44:43.524Z,8.3060
2023-03-31T03:45:44.293Z,8.3941
2023-03-31T03:46:45.100Z,8.4900
2023-03-31T03:47:46.184Z,8.3989
2023-03-31T03:48:47.063Z,8.2577
2023-03-31T03:49:47.827Z,8.2614
2023-03-31T03:50:48.544Z,8.3888
2023-03-31T03:51:49.323Z,8.2128
2023-03-31T03:52:50.056Z,8.0195
2023-03-31T03:53:50.837Z,8.0509
2023-03-31T03:54:51.601Z,8.1875
2023-03-31T03:55:52.442Z,8.1245
2023-03-31T03:56:53.396Z,8.1034
2023-03-31T03:57:54.285Z,8.2148
2023-03-31T03:58:55.088Z,8.2120
2023-03-31T03:59:55.864Z,8.1775
2023-03-31T04:00:56.673Z,8.1589
2023-03-31T04:01:57.537Z,8.0950
2023-03-31T04:02:58.482Z,8.0395
2023-03-31T04:03:59.340Z,8.0311
2023-03-31T04:05:00.296Z,8.0692
2023-03-31T04:06:01.310Z,8.1896
2023-03-31T04:07:02.166Z,8.0708
2023-03-31T04:08:04.452Z,7.9247
2023-03-31T04:20:42.986Z,8.0574
2023-03-31T04:20:45.686Z,8.3371
2023-03-31T04:21:46.433Z,8.1347
2023-03-31T04:22:59.592Z,8.1397
2023-03-31T04:24:00.470Z,8.0615
2023-03-31T04:25:01.328Z,8.0665
2023-03-31T04:26:02.092Z,8.0406
2023-03-31T04:27:03.228Z,8.1063
2023-03-31T04:28:04.352Z,8.2605
2023-03-31T04:29:05.805Z,8.1714
2023-03-31T04:30:06.744Z,8.0994
2023-03-31T04:31:07.537Z,7.9517
2023-03-31T04:32:08.510Z,7.8363
2023-03-31T04:33:09.730Z,7.7635
2023-03-31T04:34:10.554Z,8.0138
2023-03-31T04:35:11.418Z,8.0261
2023-03-31T04:36:12.270Z,7.8278
2023-03-31T04:37:13.153Z,7.8365
2023-03-31T04:38:14.032Z,7.7720
2023-03-31T04:39:14.926Z,7.8093
2023-03-31T04:40:15.689Z,7.7658
2023-03-31T04:41:16.432Z,7.6930
2023-03-31T04:42:17.207Z,7.7381
2023-03-31T04:43:17.946Z,8.0207
2023-03-31T04:44:18.673Z,8.0159
2023-03-31T04:45:19.436Z,8.0907
2023-03-31T04:46:20.323Z,8.1625
2023-03-31T04:47:21.078Z,7.9979
2023-03-31T04:48:21.912Z,8.0896
2023-03-31T04:49:22.730Z,8.1198
2023-03-31T04:50:23.490Z,8.0953
2023-03-31T04:51:24.275Z,8.0418
2023-03-31T04:52:25.041Z,8.0763
2023-03-31T04:53:25.824Z,8.0727
2023-03-31T04:54:26.649Z,8.0947
2023-03-31T04:55:27.449Z,8.0913
2023-03-31T04:56:28.214Z,8.1248
2023-03-31T04:57:29.111Z,8.1651
2023-03-31T04:58:30.073Z,8.0868
2023-03-31T04:59:30.842Z,8.1177
2023-03-31T05:00:31.641Z,8.1132
2023-03-31T05:01:32.550Z,8.1944
2023-03-31T05:02:33.349Z,8.1766
2023-03-31T05:03:34.267Z,8.1668
2023-03-31T05:04:35.177Z,8.1863
2023-03-31T05:05:36.030Z,8.2481
2023-03-31T05:06:36.989Z,8.1818
2023-03-31T05:07:37.781Z,8.2537
2023-03-31T05:08:38.600Z,8.2047
2023-03-31T05:09:39.413Z,8.0883
2023-03-31T05:10:40.268Z,8.1915
2023-03-31T05:11:41.072Z,8.2773
2023-03-31T05:12:41.834Z,8.4046
2023-03-31T05:13:42.612Z,8.3195
2023-03-31T05:14:43.418Z,8.5350
2023-03-31T05:15:44.242Z,8.3784
2023-03-31T05:16:45.094Z,8.2890
2023-03-31T05:17:45.915Z,8.4680
2023-03-31T05:18:46.763Z,8.6420
2023-03-31T05:19:47.586Z,8.8111
2023-03-31T05:20:48.353Z,8.9921
2023-03-31T05:21:49.050Z,9.1305
2023-03-31T05:22:49.836Z,9.0155
2023-03-31T05:23:50.655Z,8.8723
2023-03-31T05:24:51.450Z,8.9669
2023-03-31T05:25:52.202Z,8.9720
2023-03-31T05:26:53.114Z,8.8684
2023-03-31T05:27:53.903Z,8.7418
2023-03-31T05:28:54.708Z,8.8877
2023-03-31T05:29:55.534Z,8.8808
2023-03-31T05:30:56.329Z,8.9655
2023-03-31T05:31:57.098Z,8.9990
2023-03-31T05:32:57.895Z,8.9501
2023-03-31T05:33:58.709Z,8.8432
2023-03-31T05:34:59.579Z,8.8224
2023-03-31T05:36:00.432Z,8.7127
2023-03-31T05:37:01.321Z,8.6515
2023-03-31T05:38:02.102Z,8.5062
2023-03-31T05:39:02.895Z,8.3299
2023-03-31T05:40:03.734Z,8.2855
2023-03-31T05:41:04.544Z,8.2397
2023-03-31T05:42:05.387Z,8.2400
2023-03-31T05:43:06.134Z,8.2946
2023-03-31T05:44:06.808Z,8.3716
2023-03-31T05:45:09.256Z,8.6335
2023-03-31T05:46:08.820Z,8.6318
2023-03-31T05:47:09.811Z,8.5271
2023-03-31T05:48:10.511Z,8.5199
2023-03-31T05:49:11.176Z,8.4685
2023-03-31T05:50:14.041Z,8.5274
2023-03-31T05:51:13.140Z,8.5795
2023-03-31T05:52:13.814Z,8.9190
2023-03-31T05:53:14.524Z,8.7969
2023-03-31T05:54:15.182Z,8.7059
2023-03-31T05:55:15.926Z,8.6971
2023-03-31T05:56:16.643Z,8.6878
2023-03-31T05:57:17.400Z,8.7351
2023-03-31T05:58:18.065Z,8.6788
2023-03-31T06:00:19.362Z,8.6925
2023-03-31T06:01:20.124Z,8.7274
2023-03-31T06:02:20.961Z,8.6922
2023-03-31T06:03:21.684Z,8.7523
2023-03-31T06:04:22.425Z,8.7512
2023-03-31T06:05:23.201Z,8.7149
2023-03-31T06:06:24.016Z,8.6253
2023-03-31T06:07:24.827Z,8.5097
2023-03-31T06:08:25.659Z,8.5537
2023-03-31T06:09:26.473Z,8.5943
2023-03-31T06:10:27.173Z,8.5981
2023-03-31T06:11:27.982Z,8.6566
2023-03-31T06:12:28.774Z,8.7532
2023-03-31T06:13:29.591Z,8.9224
2023-03-31T06:14:30.391Z,8.9862
2023-03-31T06:15:31.188Z,9.3040
2023-03-31T06:16:32.059Z,9.5067
2023-03-31T06:17:33.149Z,9.4124
2023-03-31T06:18:33.901Z,9.4915
2023-03-31T06:19:34.743Z,9.5857
2023-03-31T06:20:35.507Z,9.5941
2023-03-31T06:21:36.310Z,9.7371
2023-03-31T06:22:37.108Z,9.8096
2023-03-31T06:23:37.908Z,9.7088
2023-03-31T06:24:38.727Z,9.7515
2023-03-31T06:25:50.444Z,9.8590
2023-03-31T06:26:40.931Z,9.8453
2023-03-31T06:27:41.713Z,9.9614
2023-03-31T06:28:42.466Z,10.0271
2023-03-31T06:29:43.291Z,10.0241
2023-03-31T06:30:44.148Z,9.9103
2023-03-31T06:31:45.008Z,9.9658
2023-03-31T06:32:45.830Z,10.0315
2023-03-31T06:33:46.697Z,10.1443
2023-03-31T06:34:47.498Z,10.2505
2023-03-31T06:35:48.299Z,10.2212
2023-03-31T06:36:49.122Z,10.2976
2023-03-31T06:37:49.913Z,10.3951
2023-03-31T06:38:51.262Z,10.4304
2023-03-31T06:39:52.173Z,10.5203
2023-03-31T06:40:52.981Z,10.6874
2023-03-31T06:41:53.629Z,10.6458
2023-03-31T06:42:54.410Z,10.7141
2023-03-31T06:43:55.210Z,10.7220
2023-03-31T06:44:56.042Z,10.7301
2023-03-31T06:45:56.861Z,10.7105
2023-03-31T06:46:57.765Z,10.6678
2023-03-31T06:47:58.650Z,10.6560
2023-03-31T06:48:59.479Z,10.7313
2023-03-31T06:50:00.274Z,10.7851
2023-03-31T06:51:01.048Z,10.7461
2023-03-31T06:52:01.783Z,10.7736
2023-03-31T06:53:02.542Z,10.9062
2023-03-31T06:54:03.311Z,10.8602
2023-03-31T06:55:04.145Z,10.8699
2023-03-31T06:56:05.090Z,10.9519
2023-03-31T06:57:05.971Z,11.0771
2023-03-31T06:58:06.806Z,11.0908
2023-03-31T06:59:07.614Z,11.1406
2023-03-31T07:00:08.407Z,11.2130
2023-03-31T07:01:09.424Z,11.2221
2023-03-31T07:02:10.245Z,11.1671
2023-03-31T07:03:11.118Z,11.1582
2023-03-31T07:04:12.044Z,11.0879
2023-03-31T07:05:13.780Z,11.1184
2023-03-31T07:06:14.587Z,11.0791
2023-03-31T07:07:15.365Z,11.1609
2023-03-31T07:08:16.198Z,11.2096
2023-03-31T07:09:17.005Z,11.2688
2023-03-31T07:10:17.776Z,11.3172
2023-03-31T07:11:21.018Z,11.2620
2023-03-31T07:12:19.984Z,11.3159
2023-03-31T07:13:20.671Z,11.4547
2023-03-31T07:14:21.500Z,11.4708
2023-03-31T07:15:22.327Z,11.4734
2023-03-31T07:16:23.147Z,11.7086
2023-03-31T07:17:23.951Z,11.7209
2023-03-31T07:18:24.749Z,11.6919
2023-03-31T07:19:25.579Z,11.8165
2023-03-31T07:20:26.384Z,11.8825
2023-03-31T07:21:27.203Z,11.9913
2023-03-31T07:22:27.976Z,12.0944
2023-03-31T07:23:28.805Z,12.0512
2023-03-31T07:24:29.587Z,12.1842
2023-03-31T07:25:30.402Z,12.2819
2023-03-31T07:26:31.366Z,12.2432
2023-03-31T07:27:32.170Z,12.2484
2023-03-31T07:28:32.836Z,12.2576
2023-03-31T07:29:33.660Z,12.2723
2023-03-31T07:30:34.429Z,12.1445
2023-03-31T07:31:35.307Z,12.1382
2023-03-31T07:32:36.264Z,12.1530
2023-03-31T07:33:37.263Z,12.1277
2023-03-31T07:34:38.069Z,12.1309
2023-03-31T07:35:38.896Z,12.0984
2023-03-31T07:36:39.752Z,11.9551
2023-03-31T07:37:40.574Z,12.0761
2023-03-31T07:38:41.416Z,12.0575
2023-03-31T07:39:42.180Z,12.1117
2023-03-31T07:40:42.995Z,11.9725
2023-03-31T07:41:43.810Z,11.9673
2023-03-31T07:42:45.939Z,12.0544
2023-03-31T07:43:45.688Z,12.3834
2023-03-31T07:44:46.560Z,12.4895
2023-03-31T07:45:47.397Z,12.5317
2023-03-31T07:46:48.208Z,12.5848
2023-03-31T07:47:49.066Z,12.4733
2023-03-31T07:48:49.706Z,12.4122
2023-03-31T07:49:50.482Z,12.5358
2023-03-31T07:50:51.249Z,12.5398
2023-03-31T07:51:52.067Z,12.5475
2023-03-31T07:52:52.897Z,12.4516
2023-03-31T07:53:53.547Z,12.4255
2023-03-31T07:54:54.298Z,12.5086
2023-03-31T07:55:55.112Z,12.3566
2023-03-31T07:56:55.930Z,12.2449
2023-03-31T08:35:37.973Z,13.3320
2023-03-31T08:36:38.739Z,13.3623
2023-03-31T08:37:39.529Z,13.4312
2023-03-31T08:38:40.244Z,13.5072
2023-03-31T08:39:40.987Z,13.5336
2023-03-31T08:40:41.753Z,13.5856
2023-03-31T08:41:42.441Z,13.5529
2023-03-31T08:42:43.155Z,13.5078
2023-03-31T08:43:43.884Z,13.3917
2023-03-31T08:44:44.608Z,13.3815
2023-03-31T08:45:45.313Z,13.4351
2023-03-31T08:46:46.025Z,13.4206
2023-03-31T08:47:46.855Z,13.4603
2023-03-31T08:48:47.699Z,13.5093
2023-03-31T08:49:48.407Z,13.4255
2023-03-31T08:50:49.127Z,13.4206
2023-03-31T08:51:49.823Z,13.4035
2023-03-31T08:52:50.539Z,13.3768
2023-03-31T08:53:51.205Z,13.2810
2023-03-31T08:54:51.894Z,13.3356
2023-03-31T08:55:52.606Z,13.2667
2023-03-31T08:56:53.521Z,13.2355
2023-03-31T08:57:54.321Z,13.2722
2023-03-31T08:58:55.038Z,13.3091
2023-03-31T08:59:55.734Z,13.4024
2023-03-31T09:00:56.476Z,13.4394
2023-03-31T09:01:57.252Z,13.3976
2023-03-31T09:02:58.010Z,13.4414
2023-03-31T09:03:58.958Z,13.6229
2023-03-31T09:05:00.295Z,13.7171
2023-03-31T09:06:01.244Z,13.6692
2023-03-31T09:07:02.105Z,13.7087
2023-03-31T09:08:02.813Z,13.8119
2023-03-31T09:09:03.486Z,13.8324
2023-03-31T09:10:04.206Z,13.9133
2023-03-31T09:11:04.921Z,13.8846
2023-03-31T09:12:05.535Z,13.8868
2023-03-31T09:13:06.333Z,13.8139
2023-03-31T09:14:07.058Z,13.7463
2023-03-31T09:15:07.820Z,13.7012
2023-03-31T09:16:08.787Z,13.5608
2023-03-31T09:17:10.564Z,13.4432
2023-03-31T09:18:11.266Z,13.3701
2023-03-31T09:19:12.095Z,13.3817
2023-03-31T09:20:12.768Z,13.3946
2023-03-31T09:21:13.410Z,13.3722
2023-03-31T09:22:14.053Z,13.3336
2023-03-31T09:23:14.735Z,13.2664
2023-03-31T09:24:15.451Z,13.2353
2023-03-31T09:25:16.127Z,13.2084
2023-03-31T09:26:16.801Z,13.2022
2023-03-31T09:27:17.537Z,13.1546
2023-03-31T09:28:18.205Z,13.1338
2023-03-31T09:29:18.848Z,13.1194
2023-03-31T09:30:19.544Z,13.0341
2023-03-31T09:31:20.262Z,13.0050
2023-03-31T09:32:20.998Z,12.9675
2023-03-31T09:33:21.816Z,13.1189
2023-03-31T09:34:22.522Z,13.3263
2023-03-31T09:35:23.310Z,13.6261
2023-03-31T09:36:24.167Z,13.7045
2023-03-31T09:37:24.900Z,13.7381
2023-03-31T09:38:25.605Z,13.9178
2023-03-31T09:39:26.315Z,14.0635
2023-03-31T09:40:27.019Z,14.0453
2023-03-31T09:41:27.733Z,13.9866
2023-03-31T09:42:28.464Z,13.9926
2023-03-31T09:43:29.155Z,14.1053
2023-03-31T09:44:30.084Z,14.0346
2023-03-31T09:45:31.768Z,14.0636
2023-03-31T09:46:32.517Z,14.0454
2023-03-31T09:47:33.214Z,14.0468
2023-03-31T09:48:33.969Z,14.1407
2023-03-31T09:49:34.644Z,14.1987
2023-03-31T09:50:35.268Z,14.1216
2023-03-31T09:51:35.923Z,14.2589
2023-03-31T09:52:36.538Z,14.2764
2023-03-31T09:53:37.209Z,14.3857
2023-03-31T09:54:37.903Z,14.4762
2023-03-31T09:55:39.950Z,14.5754
2023-03-31T09:56:39.100Z,14.7238
2023-03-31T09:57:39.867Z,14.4271
2023-03-31T09:58:40.819Z,14.3863
2023-03-31T09:59:41.501Z,13.9038
2023-03-31T10:00:42.145Z,13.7705
2023-03-31T10:01:42.806Z,13.5907
2023-03-31T10:02:43.547Z,13.6473
2023-03-31T10:03:44.269Z,13.8354
2023-03-31T10:04:44.971Z,13.8120
2023-03-31T10:05:45.631Z,13.8693
2023-03-31T10:06:46.282Z,13.7575
2023-03-31T10:07:46.941Z,13.6358
2023-03-31T10:08:47.629Z,13.7675
2023-03-31T10:09:48.274Z,13.8093
2023-03-31T10:10:48.951Z,13.5876
2023-03-31T10:11:49.655Z,13.5909
2023-03-31T10:12:50.296Z,13.6827
2023-03-31T10:13:51.019Z,13.5805
2023-03-31T10:14:51.710Z,13.4703
2023-03-31T10:15:52.467Z,13.5822
2023-03-31T10:16:53.132Z,13.6389
2023-03-31T10:17:55.392Z,13.6339
2023-03-31T10:18:54.479Z,13.7133
2023-03-31T10:19:55.157Z,13.7318
2023-03-31T10:20:55.835Z,13.7649
2023-03-31T10:21:56.537Z,13.8185
2023-03-31T10:22:57.167Z,13.7770
2023-03-31T10:23:57.849Z,13.7177
2023-03-31T10:24:58.497Z,13.8931
2023-03-31T10:25:59.151Z,13.9324
2023-03-31T10:26:59.806Z,14.2008
2023-03-31T10:28:00.487Z,14.3281
2023-03-31T10:29:01.180Z,14.3153
2023-03-31T10:30:01.878Z,14.2293
2023-03-31T10:31:02.603Z,14.2488
2023-03-31T10:32:03.479Z,14.4090
2023-03-31T10:33:15.383Z,14.5991
2023-03-31T10:34:05.474Z,14.3740
2023-03-31T10:35:06.124Z,14.2477
2023-03-31T10:36:06.751Z,14.3540
2023-03-31T10:37:07.480Z,14.0401
2023-03-31T10:38:08.169Z,14.1066
2023-03-31T10:39:08.945Z,13.9528
2023-03-31T10:40:09.601Z,13.8092
2023-03-31T10:41:10.419Z,13.5958
2023-03-31T10:42:11.435Z,13.5486
2023-03-31T10:43:12.130Z,13.4146
2023-03-31T10:44:12.763Z,13.3754
2023-03-31T10:45:20.356Z,13.3542
2023-03-31T10:46:14.763Z,13.4359
2023-03-31T10:47:15.416Z,13.3243
2023-03-31T10:48:16.133Z,13.0805
2023-03-31T10:49:16.863Z,12.9839
2023-03-31T10:50:17.589Z,12.6617
2023-03-31T10:51:18.401Z,12.3593
2023-03-31T10:52:19.154Z,12.1328
2023-03-31T10:53:19.959Z,12.0671
2023-03-31T10:54:20.742Z,12.0733
2023-03-31T10:55:22.537Z,11.9925
2023-03-31T10:56:23.245Z,12.0077
2023-03-31T10:57:24.040Z,11.9552
2023-03-31T10:58:24.791Z,11.9105
2023-03-31T10:59:25.577Z,11.9671
2023-03-31T11:00:26.320Z,11.9681
2023-03-31T11:01:27.034Z,11.9110
2023-03-31T11:02:27.951Z,11.8133
2023-03-31T11:03:28.976Z,11.7805
2023-03-31T11:04:29.983Z,11.6503
2023-03-31T11:05:30.679Z,11.2126
2023-03-31T11:06:31.413Z,10.6865
2023-03-31T11:07:32.175Z,10.5082
2023-03-31T11:08:32.955Z,10.5738
2023-03-31T11:09:33.756Z,10.5796
2023-03-31T11:10:34.526Z,10.6576
2023-03-31T11:11:35.364Z,10.9178
2023-03-31T11:12:36.114Z,11.0497
2023-03-31T11:13:36.945Z,11.0902
2023-03-31T11:14:37.722Z,11.2151
2023-03-31T11:15:38.502Z,11.4005
2023-03-31T11:16:39.336Z,11.5263
2023-03-31T11:17:40.414Z,11.6130
2023-03-31T11:18:41.195Z,11.7164
2023-03-31T11:19:42.004Z,11.7526
2023-03-31T11:20:42.806Z,11.7257
2023-03-31T11:21:43.556Z,11.7683
2023-03-31T11:22:44.317Z,11.8729
2023-03-31T11:23:45.048Z,11.9775
2023-03-31T11:24:45.806Z,12.0051
2023-03-31T11:25:46.534Z,11.9365
2023-03-31T11:26:47.360Z,11.9263
2023-03-31T11:27:48.159Z,11.9526
2023-03-31T11:28:48.874Z,11.9705
2023-03-31T11:29:49.635Z,11.9765
2023-03-31T11:30:50.393Z,12.0549
2023-03-31T11:31:51.174Z,12.1950
2023-03-31T11:32:51.963Z,12.2108
2023-03-31T11:33:52.759Z,12.1918
2023-03-31T11:34:53.533Z,12.2814
2023-03-31T11:35:54.457Z,12.3201
2023-03-31T11:36:55.484Z,12.2795
2023-03-31T11:37:56.237Z,12.2401
2023-03-31T11:38:56.975Z,12.2660
2023-03-31T11:39:57.734Z,12.2833
2023-03-31T11:40:58.486Z,12.3306
2023-03-31T11:41:59.240Z,12.2949
2023-03-31T11:42:59.985Z,12.3905
2023-03-31T11:44:00.763Z,12.4898
2023-03-31T11:45:01.519Z,12.7158
2023-03-31T11:46:02.356Z,12.9148
2023-03-31T11:47:03.063Z,13.0692
2023-03-31T11:48:06.164Z,13.1743
2023-03-31T11:49:04.225Z,13.3219
2023-03-31T11:50:04.988Z,13.4360
2023-03-31T11:51:05.701Z,13.4963
2023-03-31T11:52:06.401Z,13.6037
2023-03-31T11:53:07.094Z,13.6479
2023-03-31T11:54:07.793Z,13.6047
2023-03-31T11:55:08.544Z,13.5418
2023-03-31T11:56:09.384Z,13.5719
2023-03-31T11:57:10.169Z,13.5537
2023-03-31T11:58:10.865Z,13.5997
2023-03-31T11:59:11.577Z,13.6234
2023-03-31T12:00:12.324Z,13.6534
2023-03-31T12:01:13.032Z,13.7160
2023-03-31T12:02:13.759Z,13.7378
2023-03-31T12:03:14.614Z,13.6803
2023-03-31T12:04:15.548Z,13.5766
2023-03-31T12:05:16.342Z,13.5753
2023-03-31T12:06:17.278Z,13.5288
2023-03-31T12:07:18.488Z,13.5281
2023-03-31T12:08:19.245Z,13.5270
2023-03-31T12:09:19.935Z,13.5429
2023-03-31T12:10:20.701Z,13.5692
2023-03-31T12:11:21.412Z,13.5189
2023-03-31T12:12:22.135Z,13.4558
2023-03-31T12:13:22.861Z,13.4513
2023-03-31T12:14:23.565Z,13.4459
2023-03-31T12:15:24.291Z,13.2228
2023-03-31T12:16:25.060Z,12.8928
2023-03-31T12:17:25.795Z,12.5011
2023-03-31T12:18:26.486Z,12.2056
2023-03-31T12:19:27.223Z,11.9273
2023-03-31T12:20:27.986Z,11.7029
2023-03-31T12:21:28.694Z,11.3351
2023-03-31T12:22:29.419Z,11.1524
2023-03-31T12:23:30.151Z,11.0750
2023-03-31T12:24:30.906Z,11.0183
2023-03-31T12:25:31.693Z,10.7553
2023-03-31T12:26:32.438Z,10.2865
2023-03-31T12:27:33.178Z,9.9849
2023-03-31T12:28:33.940Z,9.8307
2023-03-31T12:29:34.756Z,9.8181
2023-03-31T12:30:35.561Z,9.9300
2023-03-31T12:31:36.366Z,9.9144
2023-03-31T12:32:37.227Z,9.8941
2023-03-31T12:33:37.980Z,10.4839
2023-03-31T12:34:38.908Z,12.0226
2023-03-31T12:35:39.730Z,12.8060
2023-03-31T12:36:40.449Z,12.5831
2023-03-31T12:37:41.170Z,12.3787
2023-03-31T12:38:41.882Z,12.8415
2023-03-31T12:39:42.622Z,11.7884
2023-03-31T12:40:43.351Z,11.8689
2023-03-31T12:41:44.039Z,11.8154
2023-03-31T12:42:44.746Z,11.6928
2023-03-31T12:43:47.697Z,11.4677
2023-03-31T12:44:48.002Z,11.2009
2023-03-31T12:45:48.761Z,11.1367
2023-03-31T12:46:49.554Z,11.1162
2023-03-31T12:47:51.400Z,11.2691
2023-03-31T12:48:54.190Z,11.1988
2023-03-31T12:49:54.017Z,11.1191
2023-03-31T12:50:54.790Z,11.1035
2023-03-31T12:51:55.467Z,10.9439
2023-03-31T12:52:56.180Z,11.0944
2023-03-31T12:53:58.034Z,11.3710
2023-03-31T12:54:59.061Z,11.3475
2023-03-31T12:55:59.827Z,11.4380
2023-03-31T12:57:00.636Z,11.3848
2023-03-31T12:58:01.775Z,11.4986
2023-03-31T12:59:02.504Z,11.6338
2023-03-31T13:00:03.208Z,11.4299
2023-03-31T13:01:04.037Z,11.5657
2023-03-31T13:02:05.647Z,11.6323
2023-03-31T13:03:06.396Z,11.8417
2023-03-31T13:04:07.151Z,11.8373
2023-03-31T13:05:07.839Z,11.7766
2023-03-31T13:06:08.566Z,11.8889
2023-03-31T13:07:17.499Z,12.3108
2023-03-31T13:08:10.597Z,11.7502
2023-03-31T13:09:11.334Z,11.6576
2023-03-31T13:10:12.755Z,11.7051
2023-03-31T13:11:13.712Z,11.6648
2023-03-31T13:12:14.436Z,11.7094
2023-03-31T13:13:15.173Z,11.7039
2023-03-31T13:14:15.882Z,11.6281
2023-03-31T13:15:16.580Z,11.6638
2023-03-31T13:16:17.390Z,11.6604
2023-03-31T13:17:18.089Z,11.7107
2023-03-31T13:18:18.842Z,11.7507